sensor_id;sensor_type;location;lat;lon;timestamp;P1;durP1;ratioP1;P2;durP2;ratioP2
79212;SDS011;68639;52.380;9.822;2023-04-28T00:00:04;10.37;;;4.23;;
79212;SDS011;68639;52.380;9.822;2023-04-28T00:02:30;11.43;;;4.27;;
79212;SDS011;68639;52.380;9.822;2023-04-28T00:04:55;10.43;;;4.57;;
79212;SDS011;68639;52.380;9.822;2023-04-28T00:07:22;9.97;;;4.33;;
79212;SDS011;68639;52.380;9.822;2023-04-28T00:09:47;9.40;;;3.90;;
79212;SDS011;68639;52.380;9.822;2023-04-28T00:12:12;8.73;;;4.00;;
79212;SDS011;68639;52.380;9.822;2023-04-28T00:14:37;11.60;;;4.13;;
79212;SDS011;68639;52.380;9.822;2023-04-28T00:17:03;12.57;;;4.73;;
79212;SDS011;68639;52.380;9.822;2023-04-28T00:19:28;9.63;;;4.23;;
79212;SDS011;68639;52.380;9.822;2023-04-28T00:21:54;12.13;;;5.13;;
79212;SDS011;68639;52.380;9.822;2023-04-28T00:24:20;12.80;;;4.70;;
79212;SDS011;68639;52.380;9.822;2023-04-28T00:26:45;9.60;;;4.30;;
79212;SDS011;68639;52.380;9.822;2023-04-28T00:29:10;16.93;;;5.30;;
79212;SDS011;68639;52.380;9.822;2023-04-28T00:31:35;9.27;;;4.43;;
79212;SDS011;68639;52.380;9.822;2023-04-28T00:34:01;10.07;;;4.77;;
79212;SDS011;68639;52.380;9.822;2023-04-28T00:36:26;14.27;;;4.57;;
79212;SDS011;68639;52.380;9.822;2023-04-28T00:38:56;13.40;;;4.87;;
79212;SDS011;68639;52.380;9.822;2023-04-28T00:41:21;13.13;;;5.23;;
79212;SDS011;68639;52.380;9.822;2023-04-28T00:43:47;12.13;;;5.00;;
79212;SDS011;68639;52.380;9.822;2023-04-28T00:46:16;10.50;;;4.80;;
79212;SDS011;68639;52.380;9.822;2023-04-28T00:48:42;9.87;;;4.30;;
79212;SDS011;68639;52.380;9.822;2023-04-28T00:51:07;14.63;;;5.43;;
79212;SDS011;68639;52.380;9.822;2023-04-28T00:53:32;10.17;;;4.63;;
79212;SDS011;68639;52.380;9.822;2023-04-28T00:55:58;13.80;;;5.03;;
79212;SDS011;68639;52.380;9.822;2023-04-28T00:58:23;11.47;;;4.80;;
79212;SDS011;68639;52.380;9.822;2023-04-28T01:00:49;13.23;;;4.83;;
79212;SDS011;68639;52.380;9.822;2023-04-28T01:03:14;9.63;;;4.80;;
79212;SDS011;68639;52.380;9.822;2023-04-28T01:05:39;10.00;;;4.90;;
79212;SDS011;68639;52.380;9.822;2023-04-28T01:08:05;11.07;;;4.57;;
79212;SDS011;68639;52.380;9.822;2023-04-28T01:10:30;14.00;;;4.87;;
79212;SDS011;68639;52.380;9.822;2023-04-28T01:12:55;10.87;;;5.07;;
79212;SDS011;68639;52.380;9.822;2023-04-28T01:15:20;13.13;;;4.80;;
79212;SDS011;68639;52.380;9.822;2023-04-28T01:17:46;11.30;;;5.33;;
79212;SDS011;68639;52.380;9.822;2023-04-28T01:20:12;15.67;;;5.67;;
79212;SDS011;68639;52.380;9.822;2023-04-28T01:22:37;11.07;;;4.83;;
79212;SDS011;68639;52.380;9.822;2023-04-28T01:25:02;9.93;;;5.13;;
79212;SDS011;68639;52.380;9.822;2023-04-28T01:27:28;12.37;;;5.23;;
79212;SDS011;68639;52.380;9.822;2023-04-28T01:29:53;10.27;;;5.20;;
79212;SDS011;68639;52.380;9.822;2023-04-28T01:32:18;12.33;;;5.23;;
79212;SDS011;68639;52.380;9.822;2023-04-28T01:34:44;15.67;;;5.23;;
79212;SDS011;68639;52.380;9.822;2023-04-28T01:37:09;11.97;;;4.97;;
79212;SDS011;68639;52.380;9.822;2023-04-28T01:39:34;14.17;;;5.03;;
79212;SDS011;68639;52.380;9.822;2023-04-28T01:42:00;9.60;;;4.73;;
79212;SDS011;68639;52.380;9.822;2023-04-28T01:44:26;11.67;;;5.17;;
79212;SDS011;68639;52.380;9.822;2023-04-28T01:46:51;12.33;;;5.27;;
79212;SDS011;68639;52.380;9.822;2023-04-28T01:49:17;13.77;;;5.33;;
79212;SDS011;68639;52.380;9.822;2023-04-28T01:51:42;15.47;;;5.10;;
79212;SDS011;68639;52.380;9.822;2023-04-28T01:54:07;10.77;;;5.13;;
79212;SDS011;68639;52.380;9.822;2023-04-28T01:59:35;11.67;;;5.40;;
79212;SDS011;68639;52.380;9.822;2023-04-28T02:02:00;12.93;;;5.07;;
79212;SDS011;68639;52.380;9.822;2023-04-28T02:04:26;12.13;;;5.00;;
79212;SDS011;68639;52.380;9.822;2023-04-28T02:06:51;10.10;;;4.57;;
79212;SDS011;68639;52.380;9.822;2023-04-28T02:09:16;13.63;;;5.20;;
79212;SDS011;68639;52.380;9.822;2023-04-28T02:11:42;15.30;;;5.70;;
79212;SDS011;68639;52.380;9.822;2023-04-28T02:14:07;13.93;;;5.33;;
79212;SDS011;68639;52.380;9.822;2023-04-28T02:16:32;14.63;;;6.13;;
79212;SDS011;68639;52.380;9.822;2023-04-28T02:18:58;16.97;;;6.10;;
79212;SDS011;68639;52.380;9.822;2023-04-28T02:21:23;10.53;;;5.27;;
79212;SDS011;68639;52.380;9.822;2023-04-28T02:23:48;15.03;;;5.53;;
79212;SDS011;68639;52.380;9.822;2023-04-28T02:26:14;11.80;;;5.60;;
79212;SDS011;68639;52.380;9.822;2023-04-28T02:28:41;11.97;;;5.33;;
79212;SDS011;68639;52.380;9.822;2023-04-28T02:31:09;10.87;;;5.87;;
79212;SDS011;68639;52.380;9.822;2023-04-28T02:33:35;10.17;;;5.17;;
79212;SDS011;68639;52.380;9.822;2023-04-28T02:36:01;15.83;;;5.43;;
79212;SDS011;68639;52.380;9.822;2023-04-28T02:38:27;13.40;;;5.70;;
79212;SDS011;68639;52.380;9.822;2023-04-28T02:41:03;14.80;;;5.83;;
79212;SDS011;68639;52.380;9.822;2023-04-28T02:43:29;11.77;;;5.33;;
79212;SDS011;68639;52.380;9.822;2023-04-28T02:45:55;13.97;;;5.40;;
79212;SDS011;68639;52.380;9.822;2023-04-28T02:48:20;12.63;;;5.40;;
79212;SDS011;68639;52.380;9.822;2023-04-28T02:50:45;10.67;;;5.20;;
79212;SDS011;68639;52.380;9.822;2023-04-28T02:53:11;19.70;;;5.70;;
79212;SDS011;68639;52.380;9.822;2023-04-28T02:55:36;12.90;;;5.57;;
79212;SDS011;68639;52.380;9.822;2023-04-28T02:58:01;16.17;;;5.40;;
79212;SDS011;68639;52.380;9.822;2023-04-28T03:00:27;13.10;;;5.57;;
79212;SDS011;68639;52.380;9.822;2023-04-28T03:02:52;14.17;;;5.87;;
79212;SDS011;68639;52.380;9.822;2023-04-28T03:05:18;14.00;;;6.37;;
79212;SDS011;68639;52.380;9.822;2023-04-28T03:07:44;8.83;;;5.43;;
79212;SDS011;68639;52.380;9.822;2023-04-28T03:10:09;9.97;;;5.73;;
79212;SDS011;68639;52.380;9.822;2023-04-28T03:12:34;14.80;;;6.00;;
79212;SDS011;68639;52.380;9.822;2023-04-28T03:15:00;11.07;;;5.90;;
79212;SDS011;68639;52.380;9.822;2023-04-28T03:17:25;10.97;;;5.40;;
79212;SDS011;68639;52.380;9.822;2023-04-28T03:19:51;13.17;;;5.60;;
79212;SDS011;68639;52.380;9.822;2023-04-28T03:22:16;16.07;;;5.57;;
79212;SDS011;68639;52.380;9.822;2023-04-28T03:24:41;11.40;;;5.67;;
79212;SDS011;68639;52.380;9.822;2023-04-28T03:27:07;14.47;;;6.00;;
79212;SDS011;68639;52.380;9.822;2023-04-28T03:29:32;11.60;;;5.43;;
79212;SDS011;68639;52.380;9.822;2023-04-28T03:31:57;12.73;;;5.70;;
79212;SDS011;68639;52.380;9.822;2023-04-28T03:34:22;13.93;;;5.53;;
79212;SDS011;68639;52.380;9.822;2023-04-28T03:36:48;9.90;;;5.57;;
79212;SDS011;68639;52.380;9.822;2023-04-28T03:39:13;13.00;;;5.63;;
79212;SDS011;68639;52.380;9.822;2023-04-28T03:41:38;11.93;;;5.80;;
79212;SDS011;68639;52.380;9.822;2023-04-28T03:44:04;12.57;;;5.67;;
79212;SDS011;68639;52.380;9.822;2023-04-28T03:46:29;16.10;;;6.07;;
79212;SDS011;68639;52.380;9.822;2023-04-28T03:48:54;9.63;;;4.83;;
79212;SDS011;68639;52.380;9.822;2023-04-28T03:51:20;10.57;;;6.27;;
79212;SDS011;68639;52.380;9.822;2023-04-28T03:53:45;11.67;;;6.10;;
79212;SDS011;68639;52.380;9.822;2023-04-28T03:56:10;13.03;;;6.60;;
79212;SDS011;68639;52.380;9.822;2023-04-28T03:58:36;10.57;;;5.43;;
79212;SDS011;68639;52.380;9.822;2023-04-28T04:01:01;14.20;;;5.40;;
79212;SDS011;68639;52.380;9.822;2023-04-28T04:03:26;14.47;;;5.63;;
79212;SDS011;68639;52.380;9.822;2023-04-28T04:05:52;15.77;;;5.97;;
79212;SDS011;68639;52.380;9.822;2023-04-28T04:08:18;11.60;;;5.70;;
79212;SDS011;68639;52.380;9.822;2023-04-28T04:10:43;9.77;;;5.10;;
79212;SDS011;68639;52.380;9.822;2023-04-28T04:13:08;10.93;;;5.83;;
79212;SDS011;68639;52.380;9.822;2023-04-28T04:15:34;15.77;;;5.77;;
79212;SDS011;68639;52.380;9.822;2023-04-28T04:17:59;14.57;;;5.90;;
79212;SDS011;68639;52.380;9.822;2023-04-28T04:20:24;16.00;;;5.83;;
79212;SDS011;68639;52.380;9.822;2023-04-28T04:22:50;12.60;;;6.17;;
79212;SDS011;68639;52.380;9.822;2023-04-28T04:25:15;16.20;;;6.87;;
79212;SDS011;68639;52.380;9.822;2023-04-28T04:27:40;11.33;;;6.73;;
79212;SDS011;68639;52.380;9.822;2023-04-28T04:30:06;13.80;;;6.10;;
79212;SDS011;68639;52.380;9.822;2023-04-28T04:32:31;17.00;;;7.00;;
79212;SDS011;68639;52.380;9.822;2023-04-28T04:34:57;12.87;;;6.10;;
79212;SDS011;68639;52.380;9.822;2023-04-28T04:37:22;12.57;;;6.33;;
79212;SDS011;68639;52.380;9.822;2023-04-28T04:39:47;16.23;;;6.10;;
79212;SDS011;68639;52.380;9.822;2023-04-28T04:42:13;17.17;;;7.00;;
79212;SDS011;68639;52.380;9.822;2023-04-28T04:44:38;11.10;;;5.83;;
79212;SDS011;68639;52.380;9.822;2023-04-28T04:47:03;11.93;;;5.93;;
79212;SDS011;68639;52.380;9.822;2023-04-28T04:49:28;14.53;;;6.53;;
79212;SDS011;68639;52.380;9.822;2023-04-28T04:51:54;14.70;;;6.97;;
79212;SDS011;68639;52.380;9.822;2023-04-28T04:54:19;12.77;;;7.13;;
79212;SDS011;68639;52.380;9.822;2023-04-28T04:56:44;15.47;;;6.33;;
79212;SDS011;68639;52.380;9.822;2023-04-28T04:59:10;12.67;;;5.90;;
79212;SDS011;68639;52.380;9.822;2023-04-28T05:01:35;13.60;;;6.00;;
79212;SDS011;68639;52.380;9.822;2023-04-28T05:04:00;13.53;;;5.90;;
79212;SDS011;68639;52.380;9.822;2023-04-28T05:06:26;18.87;;;6.40;;
79212;SDS011;68639;52.380;9.822;2023-04-28T05:08:51;16.70;;;6.33;;
79212;SDS011;68639;52.380;9.822;2023-04-28T05:11:16;15.77;;;6.07;;
79212;SDS011;68639;52.380;9.822;2023-04-28T05:13:42;12.43;;;6.27;;
79212;SDS011;68639;52.380;9.822;2023-04-28T05:16:08;12.73;;;5.87;;
79212;SDS011;68639;52.380;9.822;2023-04-28T05:18:33;18.30;;;6.50;;
79212;SDS011;68639;52.380;9.822;2023-04-28T05:20:58;17.00;;;6.27;;
79212;SDS011;68639;52.380;9.822;2023-04-28T05:23:24;12.87;;;5.90;;
79212;SDS011;68639;52.380;9.822;2023-04-28T05:25:49;10.70;;;5.97;;
79212;SDS011;68639;52.380;9.822;2023-04-28T05:28:14;15.03;;;6.27;;
79212;SDS011;68639;52.380;9.822;2023-04-28T05:30:40;14.53;;;6.43;;
79212;SDS011;68639;52.380;9.822;2023-04-28T05:33:05;15.37;;;5.83;;
79212;SDS011;68639;52.380;9.822;2023-04-28T05:35:30;11.27;;;5.97;;
79212;SDS011;68639;52.380;9.822;2023-04-28T05:37:56;14.03;;;6.20;;
79212;SDS011;68639;52.380;9.822;2023-04-28T05:40:21;15.07;;;5.93;;
79212;SDS011;68639;52.380;9.822;2023-04-28T05:42:47;17.00;;;6.10;;
79212;SDS011;68639;52.380;9.822;2023-04-28T05:45:12;13.03;;;6.10;;
79212;SDS011;68639;52.380;9.822;2023-04-28T05:47:37;14.60;;;6.00;;
79212;SDS011;68639;52.380;9.822;2023-04-28T05:50:03;15.77;;;6.30;;
79212;SDS011;68639;52.380;9.822;2023-04-28T05:52:28;11.17;;;6.20;;
79212;SDS011;68639;52.380;9.822;2023-04-28T05:54:53;18.40;;;7.27;;
79212;SDS011;68639;52.380;9.822;2023-04-28T05:57:18;14.53;;;7.00;;
79212;SDS011;68639;52.380;9.822;2023-04-28T05:59:44;17.83;;;6.27;;
79212;SDS011;68639;52.380;9.822;2023-04-28T06:02:09;16.50;;;6.60;;
79212;SDS011;68639;52.380;9.822;2023-04-28T06:04:34;14.13;;;6.90;;
79212;SDS011;68639;52.380;9.822;2023-04-28T06:07:00;15.87;;;6.53;;
79212;SDS011;68639;52.380;9.822;2023-04-28T06:09:25;12.20;;;6.27;;
79212;SDS011;68639;52.380;9.822;2023-04-28T06:11:50;13.30;;;6.43;;
79212;SDS011;68639;52.380;9.822;2023-04-28T06:14:16;16.60;;;7.17;;
79212;SDS011;68639;52.380;9.822;2023-04-28T06:16:41;16.93;;;6.37;;
79212;SDS011;68639;52.380;9.822;2023-04-28T06:19:06;19.63;;;7.70;;
79212;SDS011;68639;52.380;9.822;2023-04-28T06:21:31;17.93;;;6.50;;
79212;SDS011;68639;52.380;9.822;2023-04-28T06:23:57;15.37;;;6.97;;
79212;SDS011;68639;52.380;9.822;2023-04-28T06:26:23;14.57;;;7.13;;
79212;SDS011;68639;52.380;9.822;2023-04-28T06:28:48;13.17;;;7.10;;
79212;SDS011;68639;52.380;9.822;2023-04-28T06:31:13;14.40;;;7.17;;
79212;SDS011;68639;52.380;9.822;2023-04-28T06:33:39;16.90;;;7.47;;
79212;SDS011;68639;52.380;9.822;2023-04-28T06:36:04;18.50;;;7.30;;
79212;SDS011;68639;52.380;9.822;2023-04-28T06:38:29;14.40;;;7.40;;
79212;SDS011;68639;52.380;9.822;2023-04-28T06:40:55;14.07;;;7.87;;
79212;SDS011;68639;52.380;9.822;2023-04-28T06:43:20;11.93;;;7.00;;
79212;SDS011;68639;52.380;9.822;2023-04-28T06:45:45;12.20;;;7.33;;
79212;SDS011;68639;52.380;9.822;2023-04-28T06:48:11;16.30;;;7.70;;
79212;SDS011;68639;52.380;9.822;2023-04-28T06:50:36;15.97;;;7.97;;
79212;SDS011;68639;52.380;9.822;2023-04-28T06:53:01;18.87;;;7.83;;
79212;SDS011;68639;52.380;9.822;2023-04-28T06:55:27;17.23;;;8.27;;
79212;SDS011;68639;52.380;9.822;2023-04-28T06:57:52;19.70;;;8.50;;
79212;SDS011;68639;52.380;9.822;2023-04-28T07:00:18;16.63;;;8.10;;
79212;SDS011;68639;52.380;9.822;2023-04-28T07:02:43;15.27;;;7.67;;
79212;SDS011;68639;52.380;9.822;2023-04-28T07:05:08;22.87;;;8.80;;
79212;SDS011;68639;52.380;9.822;2023-04-28T07:07:34;17.90;;;8.50;;
79212;SDS011;68639;52.380;9.822;2023-04-28T07:10:00;17.43;;;8.87;;
79212;SDS011;68639;52.380;9.822;2023-04-28T07:12:26;17.03;;;8.07;;
79212;SDS011;68639;52.380;9.822;2023-04-28T07:14:51;21.47;;;9.57;;
79212;SDS011;68639;52.380;9.822;2023-04-28T07:17:16;15.30;;;8.57;;
79212;SDS011;68639;52.380;9.822;2023-04-28T07:19:42;18.23;;;9.30;;
79212;SDS011;68639;52.380;9.822;2023-04-28T07:22:07;16.57;;;9.20;;
79212;SDS011;68639;52.380;9.822;2023-04-28T07:24:32;17.90;;;8.90;;
79212;SDS011;68639;52.380;9.822;2023-04-28T07:26:58;16.47;;;9.53;;
79212;SDS011;68639;52.380;9.822;2023-04-28T07:29:23;19.13;;;10.00;;
79212;SDS011;68639;52.380;9.822;2023-04-28T07:31:48;15.87;;;9.33;;
79212;SDS011;68639;52.380;9.822;2023-04-28T07:34:14;18.87;;;9.37;;
79212;SDS011;68639;52.380;9.822;2023-04-28T07:36:39;20.53;;;10.63;;
79212;SDS011;68639;52.380;9.822;2023-04-28T07:39:05;15.87;;;9.73;;
79212;SDS011;68639;52.380;9.822;2023-04-28T07:41:34;18.87;;;9.50;;
79212;SDS011;68639;52.380;9.822;2023-04-28T07:44:00;20.63;;;9.67;;
79212;SDS011;68639;52.380;9.822;2023-04-28T07:46:25;18.07;;;10.90;;
79212;SDS011;68639;52.380;9.822;2023-04-28T07:48:52;21.50;;;9.47;;
79212;SDS011;68639;52.380;9.822;2023-04-28T07:51:18;16.57;;;9.93;;
79212;SDS011;68639;52.380;9.822;2023-04-28T07:53:43;18.73;;;10.03;;
79212;SDS011;68639;52.380;9.822;2023-04-28T07:56:08;16.30;;;10.20;;
79212;SDS011;68639;52.380;9.822;2023-04-28T07:58:33;16.00;;;9.97;;
79212;SDS011;68639;52.380;9.822;2023-04-28T08:01:00;16.87;;;9.50;;
79212;SDS011;68639;52.380;9.822;2023-04-28T08:03:25;16.37;;;9.67;;
79212;SDS011;68639;52.380;9.822;2023-04-28T08:05:50;21.43;;;10.00;;
79212;SDS011;68639;52.380;9.822;2023-04-28T08:08:16;21.00;;;9.95;;
79212;SDS011;68639;52.380;9.822;2023-04-28T08:10:41;19.58;;;10.48;;
79212;SDS011;68639;52.380;9.822;2023-04-28T08:13:07;18.90;;;9.88;;
79212;SDS011;68639;52.380;9.822;2023-04-28T08:15:33;21.63;;;10.33;;
79212;SDS011;68639;52.380;9.822;2023-04-28T08:17:58;17.50;;;10.00;;
79212;SDS011;68639;52.380;9.822;2023-04-28T08:20:26;19.00;;;10.10;;
79212;SDS011;68639;52.380;9.822;2023-04-28T08:22:51;17.38;;;10.65;;
79212;SDS011;68639;52.380;9.822;2023-04-28T08:25:16;20.50;;;11.00;;
79212;SDS011;68639;52.380;9.822;2023-04-28T08:27:42;23.30;;;11.35;;
79212;SDS011;68639;52.380;9.822;2023-04-28T08:30:08;21.75;;;10.93;;
79212;SDS011;68639;52.380;9.822;2023-04-28T08:32:33;17.38;;;11.00;;
79212;SDS011;68639;52.380;9.822;2023-04-28T08:34:58;25.52;;;11.68;;
79212;SDS011;68639;52.380;9.822;2023-04-28T08:37:25;21.17;;;11.02;;
79212;SDS011;68639;52.380;9.822;2023-04-28T08:39:50;24.45;;;10.88;;
79212;SDS011;68639;52.380;9.822;2023-04-28T08:42:23;18.02;;;10.68;;
79212;SDS011;68639;52.380;9.822;2023-04-28T08:44:49;21.58;;;11.40;;
79212;SDS011;68639;52.380;9.822;2023-04-28T08:47:15;17.90;;;10.77;;
79212;SDS011;68639;52.380;9.822;2023-04-28T08:49:41;23.50;;;10.57;;
79212;SDS011;68639;52.380;9.822;2023-04-28T08:52:12;31.15;;;12.45;;
79212;SDS011;68639;52.380;9.822;2023-04-28T08:54:38;22.58;;;10.77;;
79212;SDS011;68639;52.380;9.822;2023-04-28T08:57:07;21.23;;;11.50;;
79212;SDS011;68639;52.380;9.822;2023-04-28T08:59:33;20.90;;;10.30;;
79212;SDS011;68639;52.380;9.822;2023-04-28T09:01:58;24.52;;;11.55;;
79212;SDS011;68639;52.380;9.822;2023-04-28T09:04:24;17.65;;;9.93;;
79212;SDS011;68639;52.380;9.822;2023-04-28T09:06:49;19.75;;;11.13;;
79212;SDS011;68639;52.380;9.822;2023-04-28T09:11:50;17.48;;;11.27;;
79212;SDS011;68639;52.380;9.822;2023-04-28T09:14:15;23.38;;;10.98;;
79212;SDS011;68639;52.380;9.822;2023-04-28T09:16:40;22.02;;;11.40;;
79212;SDS011;68639;52.380;9.822;2023-04-28T09:19:06;22.95;;;11.20;;
79212;SDS011;68639;52.380;9.822;2023-04-28T09:21:31;22.40;;;11.50;;
79212;SDS011;68639;52.380;9.822;2023-04-28T09:23:57;19.10;;;11.30;;
79212;SDS011;68639;52.380;9.822;2023-04-28T09:26:22;23.08;;;10.60;;
79212;SDS011;68639;52.380;9.822;2023-04-28T09:28:49;21.30;;;10.45;;
79212;SDS011;68639;52.380;9.822;2023-04-28T09:31:23;20.58;;;11.43;;
79212;SDS011;68639;52.380;9.822;2023-04-28T09:33:56;24.20;;;10.07;;
79212;SDS011;68639;52.380;9.822;2023-04-28T09:36:28;18.85;;;10.23;;
79212;SDS011;68639;52.380;9.822;2023-04-28T09:38:57;21.42;;;10.65;;
79212;SDS011;68639;52.380;9.822;2023-04-28T09:41:33;16.30;;;10.20;;
79212;SDS011;68639;52.380;9.822;2023-04-28T09:44:08;20.48;;;10.13;;
79212;SDS011;68639;52.380;9.822;2023-04-28T09:46:34;21.95;;;11.25;;
79212;SDS011;68639;52.380;9.822;2023-04-28T09:48:59;19.88;;;10.55;;
79212;SDS011;68639;52.380;9.822;2023-04-28T09:51:25;16.60;;;10.07;;
79212;SDS011;68639;52.380;9.822;2023-04-28T09:53:50;25.35;;;10.48;;
79212;SDS011;68639;52.380;9.822;2023-04-28T09:56:18;23.92;;;10.20;;
79212;SDS011;68639;52.380;9.822;2023-04-28T09:58:45;23.98;;;10.40;;
79212;SDS011;68639;52.380;9.822;2023-04-28T10:01:12;24.40;;;10.55;;
79212;SDS011;68639;52.380;9.822;2023-04-28T10:03:37;25.40;;;10.93;;
79212;SDS011;68639;52.380;9.822;2023-04-28T10:06:04;19.15;;;10.07;;
79212;SDS011;68639;52.380;9.822;2023-04-28T10:08:30;26.95;;;11.05;;
79212;SDS011;68639;52.380;9.822;2023-04-28T10:10:55;23.00;;;10.55;;
79212;SDS011;68639;52.380;9.822;2023-04-28T10:13:22;20.33;;;11.02;;
79212;SDS011;68639;52.380;9.822;2023-04-28T10:15:47;25.83;;;9.98;;
79212;SDS011;68639;52.380;9.822;2023-04-28T10:18:13;19.17;;;10.63;;
79212;SDS011;68639;52.380;9.822;2023-04-28T10:20:41;19.42;;;10.70;;
79212;SDS011;68639;52.380;9.822;2023-04-28T10:25:35;15.38;;;9.25;;
79212;SDS011;68639;52.380;9.822;2023-04-28T10:28:05;23.05;;;10.43;;
79212;SDS011;68639;52.380;9.822;2023-04-28T10:30:31;17.48;;;9.90;;
79212;SDS011;68639;52.380;9.822;2023-04-28T10:40:36;16.55;;;8.73;;
79212;SDS011;68639;52.380;9.822;2023-04-28T10:43:02;17.90;;;9.18;;
79212;SDS011;68639;52.380;9.822;2023-04-28T10:48:12;17.92;;;9.73;;
79212;SDS011;68639;52.380;9.822;2023-04-28T10:50:37;24.42;;;10.00;;
79212;SDS011;68639;52.380;9.822;2023-04-28T10:53:20;21.67;;;9.23;;
79212;SDS011;68639;52.380;9.822;2023-04-28T10:55:45;21.67;;;10.00;;
79212;SDS011;68639;52.380;9.822;2023-04-28T10:58:29;19.65;;;9.30;;
79212;SDS011;68639;52.380;9.822;2023-04-28T11:00:54;19.58;;;10.68;;
79212;SDS011;68639;52.380;9.822;2023-04-28T11:08:44;19.15;;;10.85;;
79212;SDS011;68639;52.380;9.822;2023-04-28T11:11:16;20.05;;;10.25;;
79212;SDS011;68639;52.380;9.822;2023-04-28T11:13:42;15.27;;;9.68;;
79212;SDS011;68639;52.380;9.822;2023-04-28T11:16:10;22.77;;;10.43;;
79212;SDS011;68639;52.380;9.822;2023-04-28T11:18:47;15.77;;;9.38;;
79212;SDS011;68639;52.380;9.822;2023-04-28T11:21:13;16.85;;;9.48;;
79212;SDS011;68639;52.380;9.822;2023-04-28T11:23:39;24.95;;;10.60;;
79212;SDS011;68639;52.380;9.822;2023-04-28T11:26:04;18.50;;;9.82;;
79212;SDS011;68639;52.380;9.822;2023-04-28T11:28:29;17.70;;;9.90;;
79212;SDS011;68639;52.380;9.822;2023-04-28T11:31:14;16.50;;;9.40;;
79212;SDS011;68639;52.380;9.822;2023-04-28T11:36:22;16.13;;;8.75;;
79212;SDS011;68639;52.380;9.822;2023-04-28T11:38:48;18.00;;;8.68;;
79212;SDS011;68639;52.380;9.822;2023-04-28T11:41:13;21.25;;;10.38;;
79212;SDS011;68639;52.380;9.822;2023-04-28T11:43:38;16.65;;;9.75;;
79212;SDS011;68639;52.380;9.822;2023-04-28T11:46:06;20.27;;;9.55;;
79212;SDS011;68639;52.380;9.822;2023-04-28T11:48:31;20.83;;;9.63;;
79212;SDS011;68639;52.380;9.822;2023-04-28T11:50:56;17.42;;;9.90;;
79212;SDS011;68639;52.380;9.822;2023-04-28T11:53:39;15.73;;;9.23;;
79212;SDS011;68639;52.380;9.822;2023-04-28T11:56:04;18.08;;;10.07;;
79212;SDS011;68639;52.380;9.822;2023-04-28T11:58:32;15.68;;;10.30;;
79212;SDS011;68639;52.380;9.822;2023-04-28T12:01:10;15.30;;;9.98;;
79212;SDS011;68639;52.380;9.822;2023-04-28T12:03:55;21.85;;;10.35;;
79212;SDS011;68639;52.380;9.822;2023-04-28T12:06:20;19.65;;;10.48;;
79212;SDS011;68639;52.380;9.822;2023-04-28T12:08:46;18.90;;;9.32;;
79212;SDS011;68639;52.380;9.822;2023-04-28T12:11:11;15.95;;;10.07;;
79212;SDS011;68639;52.380;9.822;2023-04-28T12:13:37;21.50;;;9.88;;
79212;SDS011;68639;52.380;9.822;2023-04-28T12:16:04;16.98;;;9.32;;
79212;SDS011;68639;52.380;9.822;2023-04-28T12:20:58;22.42;;;10.95;;
79212;SDS011;68639;52.380;9.822;2023-04-28T12:23:33;17.40;;;10.77;;
79212;SDS011;68639;52.380;9.822;2023-04-28T12:26:01;22.67;;;10.82;;
79212;SDS011;68639;52.380;9.822;2023-04-28T12:28:36;20.38;;;10.63;;
79212;SDS011;68639;52.380;9.822;2023-04-28T12:31:05;16.77;;;10.60;;
79212;SDS011;68639;52.380;9.822;2023-04-28T12:33:33;19.60;;;10.73;;
79212;SDS011;68639;52.380;9.822;2023-04-28T12:36:01;23.80;;;11.23;;
79212;SDS011;68639;52.380;9.822;2023-04-28T12:38:26;18.73;;;10.77;;
79212;SDS011;68639;52.380;9.822;2023-04-28T12:40:52;19.65;;;11.60;;
79212;SDS011;68639;52.380;9.822;2023-04-28T12:43:18;23.35;;;11.50;;
79212;SDS011;68639;52.380;9.822;2023-04-28T12:45:43;23.35;;;11.45;;
79212;SDS011;68639;52.380;9.822;2023-04-28T12:48:08;23.45;;;11.10;;
79212;SDS011;68639;52.380;9.822;2023-04-28T12:50:34;20.67;;;11.63;;
79212;SDS011;68639;52.380;9.822;2023-04-28T12:52:59;23.20;;;11.32;;
79212;SDS011;68639;52.380;9.822;2023-04-28T12:55:25;20.05;;;11.43;;
79212;SDS011;68639;52.380;9.822;2023-04-28T12:57:51;20.60;;;11.52;;
79212;SDS011;68639;52.380;9.822;2023-04-28T13:00:16;24.70;;;12.18;;
79212;SDS011;68639;52.380;9.822;2023-04-28T13:02:45;23.90;;;12.70;;
79212;SDS011;68639;52.380;9.822;2023-04-28T13:05:10;23.00;;;11.50;;
79212;SDS011;68639;52.380;9.822;2023-04-28T13:07:36;20.85;;;11.65;;
79212;SDS011;68639;52.380;9.822;2023-04-28T13:10:01;18.10;;;11.65;;
79212;SDS011;68639;52.380;9.822;2023-04-28T13:12:26;19.67;;;11.57;;
79212;SDS011;68639;52.380;9.822;2023-04-28T13:14:52;22.65;;;12.48;;
79212;SDS011;68639;52.380;9.822;2023-04-28T13:17:17;18.15;;;11.40;;
79212;SDS011;68639;52.380;9.822;2023-04-28T13:19:42;20.00;;;11.77;;
79212;SDS011;68639;52.380;9.822;2023-04-28T13:22:07;20.40;;;12.48;;
79212;SDS011;68639;52.380;9.822;2023-04-28T13:24:33;23.13;;;13.52;;
79212;SDS011;68639;52.380;9.822;2023-04-28T13:26:59;25.50;;;13.20;;
79212;SDS011;68639;52.380;9.822;2023-04-28T13:29:26;21.33;;;13.10;;
79212;SDS011;68639;52.380;9.822;2023-04-28T13:31:51;22.13;;;12.60;;
79212;SDS011;68639;52.380;9.822;2023-04-28T13:34:16;26.77;;;12.30;;
79212;SDS011;68639;52.380;9.822;2023-04-28T13:36:43;22.17;;;11.82;;
79212;SDS011;68639;52.380;9.822;2023-04-28T13:39:08;24.80;;;12.18;;
79212;SDS011;68639;52.380;9.822;2023-04-28T13:41:40;20.88;;;11.60;;
79212;SDS011;68639;52.380;9.822;2023-04-28T13:44:06;27.70;;;12.35;;
79212;SDS011;68639;52.380;9.822;2023-04-28T13:46:31;21.75;;;12.38;;
79212;SDS011;68639;52.380;9.822;2023-04-28T13:48:56;23.52;;;12.57;;
79212;SDS011;68639;52.380;9.822;2023-04-28T13:51:22;21.40;;;13.40;;
79212;SDS011;68639;52.380;9.822;2023-04-28T13:53:47;25.77;;;12.95;;
79212;SDS011;68639;52.380;9.822;2023-04-28T13:56:13;20.90;;;12.90;;
79212;SDS011;68639;52.380;9.822;2023-04-28T13:58:38;19.70;;;12.80;;
79212;SDS011;68639;52.380;9.822;2023-04-28T14:01:03;21.33;;;13.27;;
79212;SDS011;68639;52.380;9.822;2023-04-28T14:03:29;23.70;;;12.48;;
79212;SDS011;68639;52.380;9.822;2023-04-28T14:05:55;22.50;;;12.88;;
79212;SDS011;68639;52.380;9.822;2023-04-28T14:08:20;19.60;;;11.85;;
79212;SDS011;68639;52.380;9.822;2023-04-28T14:10:47;18.98;;;12.88;;
79212;SDS011;68639;52.380;9.822;2023-04-28T14:13:12;23.00;;;13.70;;
79212;SDS011;68639;52.380;9.822;2023-04-28T14:15:37;22.85;;;13.05;;
79212;SDS011;68639;52.380;9.822;2023-04-28T14:18:04;26.63;;;14.77;;
79212;SDS011;68639;52.380;9.822;2023-04-28T14:20:29;23.40;;;13.73;;
79212;SDS011;68639;52.380;9.822;2023-04-28T14:22:55;26.48;;;14.13;;
79212;SDS011;68639;52.380;9.822;2023-04-28T14:25:20;22.35;;;14.57;;
79212;SDS011;68639;52.380;9.822;2023-04-28T14:27:47;22.02;;;13.70;;
79212;SDS011;68639;52.380;9.822;2023-04-28T14:30:12;22.27;;;13.95;;
79212;SDS011;68639;52.380;9.822;2023-04-28T14:32:38;24.08;;;13.68;;
79212;SDS011;68639;52.380;9.822;2023-04-28T14:35:03;24.50;;;14.40;;
79212;SDS011;68639;52.380;9.822;2023-04-28T14:37:30;20.95;;;14.13;;
79212;SDS011;68639;52.380;9.822;2023-04-28T14:39:55;27.92;;;14.07;;
79212;SDS011;68639;52.380;9.822;2023-04-28T14:42:21;23.88;;;14.43;;
79212;SDS011;68639;52.380;9.822;2023-04-28T14:44:51;24.17;;;14.15;;
79212;SDS011;68639;52.380;9.822;2023-04-28T14:47:16;23.25;;;13.85;;
79212;SDS011;68639;52.380;9.822;2023-04-28T14:49:42;20.52;;;13.63;;
79212;SDS011;68639;52.380;9.822;2023-04-28T14:52:07;23.48;;;13.82;;